Terminal Aerodrome Forecast
Issued by NWS Denver/Boulder, CO

Home | Current Version | Previous Version | Text Only | Print | Product List | Glossary On
Versions: 1 2 3 4 5 6 7 8 9 10 11 12 13 14 15 16 17 18 19 20 21 22 23 24 25 26 27 28 29 30 31 32 33 34 35 36 37 38 39 40 41 42 43 44 45 46 47 48 49 50
000
FTUS45 KBOU 040711 AAA
TAFDEN
TAF AMD
KDEN 040711Z 0407/0512 22006KT P6SM BKN060 OVC090
     FM040800 15006KT P6SM FEW030 BKN050
      TEMPO 0408/0411 3SM -RA BR BKN025 OVC040
     FM041100 11008KT 3SM -RA BR BKN010 OVC020
     FM041500 08007KT P6SM BKN015 OVC030
     FM042000 10007KT P6SM VCTS BKN025 BKN040CB
      TEMPO 0422/0502 3SM -TSRA BKN025CB
     FM050200 11008KT 5SM -RA BR BKN020 OVC040
     FM050600 09009KT 5SM -SHRA BR BKN010 OVC020=

USA.gov is the U.S. government's official web portal to all federal, state and local government web resources and services.